Time;durP1;ratioP1;P1;durP2;ratioP2;P2;SDS_P1;SDS_P2;PMS_P1;PMS_P2;Temp;Humidity;BMP_temperature;BMP_pressure;BME280_temperature;BME280_humidity;BME280_pressure;Samples;Min_cycle;Max_cycle;Signal;HPM_P1;HPM_P2
2022/04/07 04:00:52;;;;;;;;;;;10.40;99.90;;;;;;5758685;23;19929;-64
2022/04/07 04:03:19;;;;;;;;;;;10.40;99.90;;;;;;4977612;28;19922;-64
2022/04/07 04:05:45;;;;;;;;;;;10.50;99.90;;;;;;4977879;28;19922;-64
2022/04/07 04:08:12;;;;;;;;;;;10.40;99.90;;;;;;4978775;28;19922;-64
2022/04/07 04:10:38;;;;;;;;;;;10.50;99.90;;;;;;4978949;28;19929;-65
2022/04/07 04:13:05;;;;;;;;;;;10.50;99.90;;;;;;4978339;28;19929;-64
2022/04/07 04:15:32;;;;;;;;;;;10.50;99.90;;;;;;4978083;28;19930;-64
2022/04/07 04:17:59;;;;;;;;;;;10.50;99.90;;;;;;4977756;28;19922;-64
2022/04/07 04:20:26;;;;;;;;;;;10.40;99.90;;;;;;4978761;28;19929;-65
2022/04/07 04:22:53;;;;;;;;;;;10.40;99.90;;;;;;4978319;28;20420;-64
2022/04/07 04:25:19;;;;;;;;;;;10.30;99.90;;;;;;4977812;28;20016;-63
2022/04/07 04:27:46;;;;;;;;;;;10.30;99.90;;;;;;4977919;28;19929;-64
2022/04/07 04:30:13;;;;;;;;;;;10.30;99.90;;;;;;4977519;28;20393;-65
2022/04/07 04:32:41;;;;;;;;;;;10.30;99.90;;;;;;4977794;28;20416;-64
2022/04/07 04:35:10;;;;;;;;;;;10.40;99.90;;;;;;4977841;28;19922;-64
2022/04/07 04:37:36;;;;;;;;;;;10.40;99.90;;;;;;4977279;28;20020;-64
2022/04/07 04:40:04;;;;;;;;;;;10.40;99.90;;;;;;4977948;28;19926;-65
2022/04/07 04:42:30;;;;;;;;;;;10.40;99.90;;;;;;4977524;28;20293;-64
2022/04/07 04:44:57;;;;;;;;;;;10.40;99.90;;;;;;4977394;28;19922;-65
2022/04/07 04:47:23;;;;;;;;;;;10.40;99.90;;;;;;4977548;28;20270;-64
2022/04/07 04:49:50;;;;;;;;;;;10.40;99.90;;;;;;4977180;28;19929;-65
2022/04/07 04:52:19;;;;;;;;;;;10.40;99.90;;;;;;4977916;28;19929;-65
2022/04/07 04:54:45;;;;;;;;;;;10.50;99.90;;;;;;4977664;28;20025;-64
2022/04/07 04:57:12;;;;;;;;;;;10.50;99.90;;;;;;4977745;28;19926;-65
2022/04/07 04:59:38;;;;;;;;;;;10.50;99.90;;;;;;4977410;28;19922;-64
2022/04/07 05:02:05;;;;;;;;;;;10.50;99.90;;;;;;4977626;28;19969;-66
2022/04/07 05:04:32;;;;;;;;;;;10.50;99.90;;;;;;4977636;28;19969;-66
2022/04/07 05:06:58;;;;;;;;;;;10.50;99.90;;;;;;4977745;28;20377;-65
2022/04/07 05:09:26;;;;;;;;;;;10.50;99.90;;;;;;4978830;28;19976;-65
2022/04/07 05:11:53;;;;;;;;;;;10.60;99.90;;;;;;4977368;28;19972;-65
2022/04/07 05:14:19;;;;;;;;;;;10.60;99.90;;;;;;4978548;28;19926;-66
2022/04/07 05:16:46;;;;;;;;;;;10.60;99.90;;;;;;4977578;28;19921;-67
2022/04/07 05:19:12;;;;;;;;;;;10.70;99.90;;;;;;4977298;28;19930;-66
2022/04/07 05:21:39;;;;;;;;;;;10.60;99.90;;;;;;4977114;28;20377;-66
2022/04/07 05:24:06;;;;;;;;;;;10.60;99.90;;;;;;4977190;28;20349;-65
2022/04/07 05:26:34;;;;;;;;;;;10.70;99.90;;;;;;4977236;28;19926;-65
2022/04/07 05:29:00;;;;;;;;;;;10.70;99.90;;;;;;4976723;28;19945;-66
2022/04/07 05:31:28;;;;;;;;;;;10.70;99.90;;;;;;4976533;28;19922;-65
2022/04/07 05:33:54;;;;;;;;;;;10.70;99.90;;;;;;4976864;28;20068;-65
2022/04/07 05:36:21;;;;;;;;;;;10.70;99.90;;;;;;4977030;28;19922;-65
2022/04/07 05:38:47;;;;;;;;;;;10.70;99.90;;;;;;4978219;28;19929;-66
2022/04/07 05:41:14;;;;;;;;;;;10.70;99.90;;;;;;4976952;28;19922;-66
2022/04/07 05:43:42;;;;;;;;;;;10.70;99.90;;;;;;4976948;28;20326;-65
2022/04/07 05:46:08;;;;;;;;;;;10.70;99.90;;;;;;4977250;28;20215;-65
2022/04/07 05:48:35;;;;;;;;;;;10.70;99.90;;;;;;4977616;28;19945;-65
2022/04/07 05:51:01;;;;;;;;;;;10.60;99.90;;;;;;4976810;28;19926;-65
2022/04/07 05:53:28;;;;;;;;;;;10.60;99.90;;;;;;4976212;28;19922;-66
2022/04/07 05:55:57;;;;;;;;;;;10.70;99.90;;;;;;4977277;28;20013;-65
2022/04/07 05:58:24;;;;;;;;;;;10.80;99.90;;;;;;4977089;28;19926;-67
2022/04/07 06:00:52;;;;;;;;;;;10.80;99.90;;;;;;4976611;28;19928;-65
2022/04/07 06:03:18;;;;;;;;;;;10.90;99.90;;;;;;4975897;28;19929;-66
2022/04/07 06:05:45;;;;;;;;;;;11.00;99.90;;;;;;4977435;28;20396;-66
2022/04/07 06:08:12;;;;;;;;;;;11.30;99.90;;;;;;4976307;28;19922;-66
2022/04/07 06:10:38;;;;;;;;;;;11.80;99.90;;;;;;4977236;28;19929;-65
2022/04/07 06:13:05;;;;;;;;;;;12.10;99.90;;;;;;4977006;28;19929;-65
2022/04/07 06:15:32;;;;;;;;;;;12.30;99.90;;;;;;4977639;28;19921;-65
2022/04/07 06:18:00;;;;;;;;;;;12.40;99.90;;;;;;4980005;28;19926;-66
2022/04/07 06:20:26;;;;;;;;;;;12.30;99.90;;;;;;4976712;28;19922;-65
2022/04/07 06:22:53;;;;;;;;;;;12.10;99.90;;;;;;4975824;28;20323;-66
2022/04/07 06:25:19;;;;;;;;;;;12.00;99.90;;;;;;4975485;28;19921;-65
2022/04/07 06:27:47;;;;;;;;;;;12.00;99.90;;;;;;4975360;28;19922;-65
2022/04/07 06:30:14;;;;;;;;;;;11.80;99.90;;;;;;4975138;28;19926;-65
2022/04/07 06:32:41;;;;;;;;;;;11.70;99.90;;;;;;4975461;28;19922;-65
2022/04/07 06:35:10;;;;;;;;;;;11.70;99.90;;;;;;4975733;28;19929;-65
2022/04/07 06:37:49;;;;;;;;;;;11.60;99.90;;;;;;4977508;28;19944;-65
2022/04/07 06:40:18;;;;;;;;;;;11.60;99.90;;;;;;4977671;28;19922;-65
2022/04/07 06:42:45;;;;;;;;;;;11.50;99.90;;;;;;4977539;28;20297;-65
2022/04/07 06:45:11;;;;;;;;;;;11.50;99.90;;;;;;4977207;28;19981;-65
2022/04/07 06:47:38;;;;;;;;;;;11.60;99.90;;;;;;4977699;28;19953;-65
2022/04/07 06:50:05;;;;;;;;;;;11.60;99.90;;;;;;4977086;28;19922;-65
2022/04/07 06:52:33;;;;;;;;;;;11.60;99.90;;;;;;4976189;28;19929;-65
2022/04/07 06:55:00;;;;;;;;;;;11.60;99.90;;;;;;4977143;28;19972;-66
2022/04/07 06:57:26;;;;;;;;;;;11.60;99.90;;;;;;4977070;28;19929;-65
2022/04/07 06:59:53;;;;;;;;;;;11.60;99.90;;;;;;4977161;28;19921;-66
2022/04/07 07:02:20;;;;;;;;;;;11.60;99.90;;;;;;4976641;28;19926;-65
2022/04/07 07:04:46;;;;;;;;;;;11.60;99.90;;;;;;4977112;28;19945;-65
2022/04/07 07:07:13;;;;;;;;;;;11.70;99.90;;;;;;4976055;28;20416;-65
2022/04/07 07:09:41;;;;;;;;;;;11.70;99.90;;;;;;4975511;28;20009;-66
2022/04/07 07:12:08;;;;;;;;;;;11.70;99.90;;;;;;4975479;28;19922;-66
2022/04/07 07:14:34;;;;;;;;;;;11.80;99.90;;;;;;4978244;28;19929;-65
2022/04/07 07:17:01;;;;;;;;;;;11.80;99.90;;;;;;4978910;28;20380;-65
2022/04/07 07:19:28;;;;;;;;;;;11.80;99.90;;;;;;4978804;28;19922;-65
2022/04/07 07:21:55;;;;;;;;;;;11.90;99.90;;;;;;4980597;28;19976;-65
2022/04/07 07:24:21;;;;;;;;;;;11.90;99.90;;;;;;4980646;28;19922;-65
2022/04/07 07:26:49;;;;;;;;;;;11.90;99.90;;;;;;4981277;28;19922;-65
2022/04/07 07:29:16;;;;;;;;;;;12.00;99.90;;;;;;4982152;28;19922;-65
2022/04/07 07:31:43;;;;;;;;;;;12.00;99.90;;;;;;4981343;28;19964;-65
2022/04/07 07:34:09;;;;;;;;;;;12.10;99.90;;;;;;4983501;28;19922;-65
2022/04/07 07:36:36;;;;;;;1.50;0.87;;;12.10;99.90;;;;;;4982345;28;20405;-64
2022/04/07 07:39:03;;;;;;;0.53;0.53;;;12.10;99.90;;;;;;4982147;28;20462;-65
2022/04/07 07:41:30;;;;;;;;;;;12.20;99.90;;;;;;4980669;28;20638;-67
2022/04/07 07:43:58;;;;;;;0.40;0.40;;;12.20;99.90;;;;;;4978102;28;20216;-65
2022/04/07 07:46:24;;;;;;;;;;;12.20;99.90;;;;;;4978154;28;20310;-65
2022/04/07 07:48:51;;;;;;;;;;;12.20;99.90;;;;;;4977852;28;19921;-65
2022/04/07 07:51:18;;;;;;;0.57;0.57;;;12.20;99.90;;;;;;4977689;28;20216;-65
2022/04/07 07:53:45;;;;;;;0.50;0.50;;;12.30;99.90;;;;;;4977619;28;20451;-65
2022/04/07 07:56:12;;;;;;;1.63;0.50;;;12.30;99.90;;;;;;4978099;28;20495;-65
2022/04/07 07:58:39;;;;;;;0.57;0.47;;;12.30;99.90;;;;;;4977677;28;20466;-65
2022/04/07 08:01:07;;;;;;;0.40;0.40;;;12.30;99.90;;;;;;4977203;28;20485;-64
2022/04/07 08:03:34;;;;;;;0.60;0.50;;;12.30;99.90;;;;;;4977361;28;20451;-65
2022/04/07 08:06:01;;;;;;;0.93;0.50;;;12.30;99.90;;;;;;4977082;28;20463;-65
2022/04/07 08:08:27;;;;;;;0.70;0.70;;;12.40;99.90;;;;;;4977628;28;20458;-65
2022/04/07 08:10:54;;;;;;;0.40;0.40;;;12.40;99.90;;;;;;4977275;28;20478;-66
2022/04/07 08:13:21;;;;;;;3.23;0.60;;;12.40;99.90;;;;;;4977780;28;20462;-66
2022/04/07 08:15:48;;;;;;;0.97;0.50;;;12.30;99.90;;;;;;4977612;28;20486;-65
2022/04/07 08:18:16;;;;;;;1.57;0.80;;;12.30;99.90;;;;;;4977176;28;20974;-65
2022/04/07 08:20:43;;;;;;;2.37;0.73;;;12.30;99.90;;;;;;4977077;28;21013;-65
2022/04/07 08:23:09;;;;;;;0.53;0.53;;;12.30;99.90;;;;;;4977122;28;20549;-66
2022/04/07 08:25:36;;;;;;;1.60;0.53;;;12.50;99.90;;;;;;4976450;28;20388;-65
2022/04/07 08:28:03;;;;;;;0.53;0.50;;;12.50;99.90;;;;;;4976897;28;20535;-65
2022/04/07 08:30:34;;;;;;;0.63;0.50;;;12.60;99.90;;;;;;4976720;28;20451;-66
2022/04/07 08:33:01;;;;;;;3.53;0.73;;;12.70;99.90;;;;;;4977007;28;20443;-66
2022/04/07 08:35:29;;;;;;;;;;;12.80;99.90;;;;;;4977402;28;20345;-65
2022/04/07 08:37:56;;;;;;;0.60;0.50;;;12.90;99.90;;;;;;4978057;28;20699;-64
2022/04/07 08:40:23;;;;;;;1.90;0.47;;;12.90;99.90;;;;;;4980220;28;20509;-65
2022/04/07 08:42:50;;;;;;;0.70;0.63;;;12.80;99.90;;;;;;4980260;28;20462;-65
2022/04/07 08:45:17;;;;;;;0.73;0.50;;;12.80;99.90;;;;;;4978574;28;20463;-65
2022/04/07 08:47:48;;;;;;;0.50;0.50;;;12.70;99.90;;;;;;4978186;28;20531;-65
2022/04/07 08:50:15;;;;;;;;;;;12.60;99.90;;;;;;4977172;28;20017;-64
2022/04/07 08:52:42;;;;;;;;;;;12.60;99.90;;;;;;4977201;28;19922;-65
2022/04/07 08:55:10;;;;;;;;;;;12.60;99.90;;;;;;4977603;28;19929;-65
2022/04/07 08:57:37;;;;;;;;;;;12.70;99.90;;;;;;4977461;28;19945;-65
2022/04/07 09:00:04;;;;;;;;;;;12.80;99.90;;;;;;4976677;28;19925;-64
2022/04/07 09:02:31;;;;;;;0.70;0.70;;;12.90;99.90;;;;;;4975888;28;19922;-66
2022/04/07 09:04:59;;;;;;;0.50;0.50;;;12.80;99.90;;;;;;4976548;28;20306;-65
2022/04/07 09:07:32;;;;;;;0.93;0.60;;;12.80;99.90;;;;;;4976539;28;20510;-66
2022/04/07 09:10:01;;;;;;;2.50;0.80;;;12.80;99.90;;;;;;4976373;28;20438;-65
2022/04/07 09:12:28;;;;;;;1.40;0.50;;;12.90;99.90;;;;;;4976456;28;20478;-65
2022/04/07 09:14:59;;;;;;;0.40;0.40;;;13.00;99.90;;;;;;4976293;28;20486;-65
2022/04/07 09:17:26;;;;;;;;;;;13.00;99.90;;;;;;4976748;28;20317;-66
2022/04/07 09:19:53;;;;;;;;;;;13.10;99.90;;;;;;4976616;28;19961;-64
2022/04/07 09:22:29;;;;;;;;;;;13.20;99.90;;;;;;4976671;28;19922;-65
2022/04/07 09:24:55;;;;;;;;;;;13.30;99.90;;;;;;4976591;28;19926;-65
2022/04/07 09:27:23;;;;;;;0.43;0.43;;;13.20;99.90;;;;;;4975958;28;19922;-66
2022/04/07 09:29:56;;;;;;;0.80;0.47;;;13.10;99.90;;;;;;4975667;28;20794;-65
2022/04/07 09:32:23;;;;;;;0.50;0.50;;;13.10;99.90;;;;;;4976092;28;20475;-66
2022/04/07 09:34:54;;;;;;;0.40;0.40;;;13.10;99.90;;;;;;4976100;28;20466;-64
2022/04/07 09:37:22;;;;;;;1.80;0.60;;;13.00;99.90;;;;;;4975756;28;20466;-65
2022/04/07 09:39:49;;;;;;;0.40;0.40;;;13.00;99.90;;;;;;4975234;28;20451;-66
2022/04/07 09:42:21;;;;;;;0.87;0.40;;;12.90;99.90;;;;;;4975764;28;20852;-68
2022/04/07 09:44:52;;;;;;;0.60;0.60;;;12.90;99.90;;;;;;4975859;28;20459;-69
2022/04/07 09:47:20;;;;;;;0.30;0.30;;;12.90;99.90;;;;;;4975994;28;20450;-68
2022/04/07 09:49:48;;;;;;;0.63;0.57;;;12.70;99.90;;;;;;4976139;28;20482;-68
2022/04/07 09:52:19;;;;;;;0.40;0.40;;;12.80;99.90;;;;;;4975965;28;20533;-66
2022/04/07 09:54:51;;;;;;;0.43;0.43;;;12.80;99.90;;;;;;4975641;28;20486;-65
2022/04/07 09:57:20;;;;;;;3.03;1.10;;;12.90;99.90;;;;;;4975461;28;20443;-64
2022/04/07 09:59:48;;;;;;;0.70;0.40;;;13.00;99.90;;;;;;4976274;28;20855;-64
2022/04/07 10:02:17;;;;;;;0.50;0.50;;;13.10;99.90;;;;;;4975029;28;20569;-64
2022/04/07 10:04:45;;;;;;;1.23;0.60;;;13.10;99.90;;;;;;4975524;28;20459;-64
2022/04/07 10:07:12;;;;;;;0.93;0.67;;;13.10;99.90;;;;;;4975449;28;20455;-65
2022/04/07 10:09:40;;;;;;;0.43;0.30;;;13.10;99.90;;;;;;4975226;28;20506;-64
2022/04/07 10:12:08;;;;;;;1.30;0.83;;;13.20;99.90;;;;;;4975059;28;20549;-65
2022/04/07 10:14:37;;;;;;;1.07;0.40;;;13.30;99.90;;;;;;4975331;28;20458;-65
2022/04/07 10:17:04;;;;;;;0.30;0.30;;;13.30;99.90;;;;;;4975379;28;20525;-65
2022/04/07 10:19:36;;;;;;;0.50;0.40;;;13.30;99.90;;;;;;4974818;28;20466;-64
2022/04/07 10:22:26;;;;;;;1.93;0.60;;;13.40;99.90;;;;;;4975162;28;20487;-65
2022/04/07 10:25:00;;;;;;;0.50;0.50;;;13.50;99.90;;;;;;4975271;28;20455;-65
2022/04/07 10:27:29;;;;;;;0.47;0.47;;;13.50;99.90;;;;;;4974933;28;20523;-65
2022/04/07 10:30:07;;;;;;;0.60;0.60;;;13.50;99.90;;;;;;4975023;28;20958;-65
2022/04/07 10:32:38;;;;;;;1.53;0.50;;;13.60;99.90;;;;;;4974702;28;20470;-64
2022/04/07 10:35:07;;;;;;;0.80;0.67;;;13.60;99.90;;;;;;4975314;28;20477;-66
2022/04/07 10:37:45;;;;;;;0.47;0.47;;;13.50;99.90;;;;;;4976602;28;20467;-66
2022/04/07 10:40:37;;;;;;;1.07;0.40;;;13.60;99.90;;;;;;4974749;28;20482;-66
2022/04/07 10:43:20;;;;;;;0.40;0.40;;;13.60;99.90;;;;;;4975003;28;20513;-66
2022/04/07 10:45:48;;;;;;;1.33;0.40;;;13.60;99.90;;;;;;4975070;28;20450;-65
2022/04/07 10:48:24;;;;;;;0.63;0.47;;;13.50;99.90;;;;;;4976003;28;20459;-65
2022/04/07 10:50:54;;;;;;;3.70;0.50;;;13.60;99.90;;;;;;4979151;28;20525;-65
2022/04/07 10:53:24;;;;;;;0.60;0.60;;;14.00;99.90;;;;;;4980777;28;20907;-66
2022/04/07 10:55:58;;;;;;;1.13;0.30;;;14.30;99.90;;;;;;4979752;28;20446;-65
2022/04/07 10:58:49;;;;;;;0.50;0.50;;;14.50;99.90;;;;;;4979278;28;20439;-65
2022/04/07 11:01:32;;;;;;;4.23;0.60;;;14.40;99.90;;;;;;4978108;28;20483;-66
2022/04/07 11:04:48;;;;;;;0.77;0.40;;;14.50;99.90;;;;;;4977644;28;20457;-66
2022/04/07 11:07:23;;;;;;;0.60;0.40;;;14.60;99.90;;;;;;4978170;28;20459;-66
2022/04/07 11:09:53;;;;;;;0.40;0.40;;;14.70;99.90;;;;;;4978383;28;20442;-65
2022/04/07 11:12:22;;;;;;;0.30;0.30;;;14.70;99.90;;;;;;4978190;28;20475;-65
2022/04/07 11:14:51;;;;;;;1.90;0.50;;;14.70;99.90;;;;;;4978176;28;20459;-64
2022/04/07 11:17:26;;;;;;;0.57;0.57;;;14.80;99.90;;;;;;4977989;28;20465;-66
2022/04/07 11:20:05;;;;;;;0.83;0.33;;;14.90;99.90;;;;;;4978410;28;20443;-65
2022/04/07 11:23:06;;;;;;;1.17;0.50;;;14.80;99.90;;;;;;4978062;28;20470;-66
2022/04/07 11:25:35;;;;;;;0.57;0.57;;;14.70;99.90;;;;;;4918235;29;20438;-66
2022/04/07 11:28:13;;;;;;;1.30;0.40;;;14.70;99.90;;;;;;4966446;28;20489;-65
2022/04/07 11:30:44;;;;;;;3.53;0.40;;;14.60;99.90;;;;;;4977583;28;20996;-65
2022/04/07 11:33:41;;;;;;;1.60;0.50;;;14.60;99.90;;;;;;4978729;28;20442;-66
2022/04/07 11:36:33;;;;;;;0.70;0.40;;;14.70;99.90;;;;;;4977909;28;20444;-65
2022/04/07 11:39:02;;;;;;;1.60;0.50;;;14.70;99.90;;;;;;4978609;28;20439;-65
2022/04/07 11:41:40;;;;;;;0.30;0.30;;;14.80;99.90;;;;;;4978146;28;20483;-66
2022/04/07 11:44:09;;;;;;;3.30;0.53;;;14.70;99.90;;;;;;4977923;28;20466;-64
2022/04/07 11:46:36;;;;;;;0.33;0.33;;;14.70;99.90;;;;;;4978022;28;20542;-66
2022/04/07 11:49:05;;;;;;;1.33;0.30;;;14.70;99.90;;;;;;4977275;28;21013;-66
2022/04/07 11:51:35;;;;;;;0.60;0.30;;;14.70;99.90;;;;;;4977491;28;20506;-66
2022/04/07 11:54:04;;;;;;;0.53;0.30;;;14.90;99.90;;;;;;4977428;28;20546;-66
2022/04/07 11:56:32;;;;;;;0.40;0.30;;;14.90;99.90;;;;;;4977017;28;20486;-66
2022/04/07 11:59:00;;;;;;;0.50;0.50;;;15.00;99.90;;;;;;4976914;28;20981;-66
2022/04/07 12:01:28;;;;;;;0.70;0.47;;;15.00;99.90;;;;;;4975960;28;20491;-66
2022/04/07 12:03:56;;;;;;;1.90;0.30;;;15.00;99.90;;;;;;4977308;28;20487;-66
2022/04/07 12:06:23;;;;;;;0.40;0.40;;;14.80;99.90;;;;;;4977364;28;20462;-66
2022/04/07 12:08:50;;;;;;;0.70;0.43;;;14.80;99.90;;;;;;4977032;28;20938;-66
2022/04/07 12:11:19;;;;;;;0.40;0.37;;;14.90;99.90;;;;;;4977273;28;21024;-66
2022/04/07 12:13:47;;;;;;;0.97;0.40;;;14.80;99.90;;;;;;4977425;28;20455;-66
2022/04/07 12:16:14;;;;;;;0.30;0.30;;;14.90;99.90;;;;;;4977234;28;20466;-66
2022/04/07 12:18:41;;;;;;;0.30;0.30;;;14.90;99.90;;;;;;4977102;28;20926;-66
2022/04/07 12:21:09;;;;;;;6.10;0.40;;;14.80;99.90;;;;;;4977380;28;20479;-67
2022/04/07 12:23:37;;;;;;;1.40;0.40;;;14.80;99.90;;;;;;4976889;28;20459;-66
2022/04/07 12:26:04;;;;;;;0.40;0.33;;;14.80;99.90;;;;;;4977269;28;20462;-66
2022/04/07 12:28:41;;;;;;;0.83;0.50;;;14.60;99.90;;;;;;4977169;28;20462;-67
2022/04/07 12:31:12;;;;;;;4.00;0.90;;;14.60;99.90;;;;;;4976685;28;20482;-66
2022/04/07 12:33:44;;;;;;;1.80;0.70;;;14.60;99.90;;;;;;4976995;28;20499;-66
2022/04/07 12:36:12;;;;;;;0.40;0.30;;;14.60;99.90;;;;;;4977061;28;20439;-66
2022/04/07 12:38:40;;;;;;;4.47;0.33;;;14.60;99.90;;;;;;4976957;28;20462;-66
2022/04/07 12:41:15;;;;;;;1.50;0.33;;;14.50;99.90;;;;;;4976701;28;20490;-66
2022/04/07 12:43:50;;;;;;;0.30;0.30;;;14.40;99.90;;;;;;4976881;28;20471;-66
2022/04/07 12:46:17;;;;;;;0.30;0.30;;;14.30;99.90;;;;;;4976892;28;20443;-66
2022/04/07 12:49:04;;;;;;;1.27;0.40;;;14.20;99.90;;;;;;4976891;28;20864;-66
2022/04/07 12:51:32;;;;;;;2.13;0.30;;;14.20;99.90;;;;;;4977146;28;20467;-66
2022/04/07 12:54:12;;;;;;;0.57;0.30;;;14.20;99.90;;;;;;4977564;28;20470;-66
2022/04/07 12:56:41;;;;;;;0.60;0.50;;;14.30;99.90;;;;;;4977266;28;20397;-66
2022/04/07 12:59:11;;;;;;;2.43;0.50;;;14.50;99.90;;;;;;4976508;28;20827;-66
2022/04/07 13:01:38;;;;;;;1.80;0.40;;;14.70;99.90;;;;;;4976131;28;20494;-66
2022/04/07 13:04:08;;;;;;;3.23;0.50;;;14.70;99.90;;;;;;4976886;28;20832;-66
2022/04/07 13:06:35;;;;;;;1.37;0.40;;;14.70;99.90;;;;;;4976949;28;20510;-66
2022/04/07 13:09:03;;;;;;;3.60;0.60;;;14.80;99.90;;;;;;4976234;28;20463;-66
2022/04/07 13:11:35;;;;;;;1.70;0.40;;;14.90;99.90;;;;;;4976404;28;20481;-66
2022/04/07 13:14:03;;;;;;;1.47;0.40;;;15.00;99.90;;;;;;4976578;28;20466;-65
2022/04/07 13:16:31;;;;;;;0.60;0.50;;;15.00;99.90;;;;;;4976571;28;20459;-66
2022/04/07 13:18:58;;;;;;;0.40;0.30;;;15.10;99.90;;;;;;4976061;28;20802;-66
2022/04/07 13:21:25;;;;;;;0.50;0.33;;;15.20;99.90;;;;;;4976304;28;20486;-66
2022/04/07 13:23:52;;;;;;;1.13;0.40;;;15.10;99.90;;;;;;4976276;28;21000;-68
2022/04/07 13:26:19;;;;;;;0.40;0.40;;;15.00;99.90;;;;;;4975940;28;21010;-67
2022/04/07 13:28:48;;;;;;;0.40;0.40;;;15.00;99.90;;;;;;4976341;28;20942;-67
2022/04/07 13:31:14;;;;;;;1.70;0.30;;;15.00;99.90;;;;;;4976574;28;20475;-66
2022/04/07 13:33:43;;;;;;;0.30;0.30;;;14.90;99.90;;;;;;4976383;28;20463;-66
2022/04/07 13:36:10;;;;;;;0.50;0.50;;;15.00;99.90;;;;;;4976285;28;20819;-66
2022/04/07 13:38:36;;;;;;;0.60;0.30;;;15.00;99.90;;;;;;4976449;28;20479;-66
2022/04/07 13:41:04;;;;;;;0.77;0.40;;;15.00;99.90;;;;;;4976366;28;20479;-66
2022/04/07 13:43:31;;;;;;;0.30;0.30;;;14.90;99.90;;;;;;4976152;28;20461;-65
2022/04/07 13:45:57;;;;;;;0.47;0.33;;;14.80;99.90;;;;;;4977067;28;20455;-65
2022/04/07 13:48:24;;;;;;;1.90;0.50;;;14.70;99.90;;;;;;4975785;28;20455;-66
2022/04/07 13:50:52;;;;;;;3.33;0.50;;;14.60;99.90;;;;;;4975614;28;20475;-65
2022/04/07 13:53:19;;;;;;;0.60;0.60;;;14.50;99.90;;;;;;4976365;28;20522;-66
2022/04/07 13:55:47;;;;;;;0.50;0.50;;;14.40;99.90;;;;;;4975898;28;20823;-66
2022/04/07 13:58:14;;;;;;;0.40;0.40;;;14.40;99.90;;;;;;4975467;28;20462;-67
2022/04/07 14:00:42;;;;;;;0.30;0.30;;;14.50;99.90;;;;;;4975257;28;20618;-66
2022/04/07 14:03:10;;;;;;;0.40;0.30;;;14.50;99.90;;;;;;4975672;28;20458;-67
2022/04/07 14:05:36;;;;;;;0.40;0.40;;;14.40;99.90;;;;;;4975168;28;20973;-66
2022/04/07 14:08:05;;;;;;;1.13;0.43;;;14.40;99.90;;;;;;4975569;28;20858;-66
2022/04/07 14:10:32;;;;;;;0.50;0.50;;;14.40;99.90;;;;;;4975564;28;20455;-66
2022/04/07 14:12:58;;;;;;;1.07;0.40;;;14.40;99.90;;;;;;4975240;28;20463;-66
2022/04/07 14:15:26;;;;;;;0.67;0.43;;;14.40;99.90;;;;;;4975237;28;20455;-67
2022/04/07 14:17:52;;;;;;;0.50;0.50;;;14.40;99.90;;;;;;4975015;28;20455;-66
2022/04/07 14:20:19;;;;;;;0.60;0.40;;;14.30;99.90;;;;;;4974750;28;20481;-66
2022/04/07 14:22:46;;;;;;;0.40;0.40;;;14.30;99.90;;;;;;4974021;28;20474;-65
2022/04/07 14:25:14;;;;;;;0.63;0.40;;;14.40;99.90;;;;;;4974745;28;20865;-66
2022/04/07 14:27:42;;;;;;;0.40;0.33;;;14.50;99.90;;;;;;4975191;28;20203;-67
2022/04/07 14:30:09;;;;;;;0.73;0.40;;;14.50;99.90;;;;;;4975486;28;20554;-66
2022/04/07 14:32:36;;;;;;;0.30;0.30;;;14.60;99.90;;;;;;4975032;28;20549;-66
2022/04/07 14:35:03;;;;;;;0.40;0.40;;;14.70;99.90;;;;;;4975838;28;20850;-67
2022/04/07 14:37:30;;;;;;;1.90;0.60;;;14.70;99.90;;;;;;4977153;28;20443;-67
2022/04/07 14:39:58;;;;;;;1.50;0.70;;;14.70;99.90;;;;;;4976082;28;20455;-66
2022/04/07 14:42:27;;;;;;;0.50;0.50;;;14.80;99.90;;;;;;4975710;28;20981;-66
2022/04/07 14:44:53;;;;;;;0.40;0.40;;;14.90;99.90;;;;;;4975730;28;20485;-68
2022/04/07 14:47:20;;;;;;;0.50;0.50;;;14.90;99.90;;;;;;4975127;28;20459;-68
2022/04/07 14:49:47;;;;;;;0.50;0.50;;;15.00;99.90;;;;;;4974779;28;20459;-68
2022/04/07 14:52:14;;;;;;;0.40;0.40;;;15.10;99.90;;;;;;4974945;28;20529;-68
2022/04/07 14:54:41;;;;;;;0.50;0.50;;;15.10;99.90;;;;;;4974619;28;20879;-67
2022/04/07 14:57:08;;;;;;;2.33;0.70;;;15.00;99.90;;;;;;4975008;28;20463;-70
2022/04/07 14:59:36;;;;;;;0.60;0.60;;;14.90;99.90;;;;;;4976566;28;20447;-69
2022/04/07 15:02:03;;;;;;;0.67;0.47;;;14.80;99.90;;;;;;4974626;28;20490;-69
2022/04/07 15:04:30;;;;;;;0.40;0.40;;;14.80;99.90;;;;;;4975193;28;20470;-69
2022/04/07 15:06:57;;;;;;;0.50;0.50;;;14.80;99.90;;;;;;4975321;28;20450;-70
2022/04/07 15:09:24;;;;;;;4.30;0.50;;;14.70;99.90;;;;;;4975540;28;20780;-69
2022/04/07 15:11:50;;;;;;;0.93;0.60;;;14.70;99.90;;;;;;4975982;28;20479;-69
2022/04/07 15:14:17;;;;;;;0.90;0.30;;;14.70;99.90;;;;;;4977620;28;20462;-70
2022/04/07 15:16:45;;;;;;;0.83;0.43;;;14.70;99.90;;;;;;4983937;28;20458;-70
2022/04/07 15:19:12;;;;;;;0.77;0.63;;;14.80;99.90;;;;;;4984225;28;20897;-69
2022/04/07 15:21:39;;;;;;;0.77;0.30;;;14.90;99.90;;;;;;4986530;28;20897;-69
2022/04/07 15:24:06;;;;;;;0.40;0.40;;;15.00;99.90;;;;;;4984691;28;20510;-70
2022/04/07 15:26:33;;;;;;;1.40;0.50;;;15.10;99.90;;;;;;4981834;28;20439;-69
2022/04/07 15:29:00;;;;;;;1.27;0.50;;;15.10;99.90;;;;;;4983882;28;20439;-70
2022/04/07 15:31:26;;;;;;;0.93;0.50;;;14.90;99.90;;;;;;4983013;28;20481;-70
2022/04/07 15:33:54;;;;;;;0.40;0.40;;;14.80;99.90;;;;;;4979660;28;20788;-69
2022/04/07 15:36:21;;;;;;;0.50;0.50;;;14.70;99.90;;;;;;4978293;28;20482;-69
2022/04/07 15:38:48;;;;;;;0.40;0.33;;;14.70;99.90;;;;;;4978057;28;20463;-69
2022/04/07 15:41:15;;;;;;;0.50;0.40;;;14.50;99.90;;;;;;4979844;28;20985;-71
2022/04/07 15:43:44;;;;;;;0.70;0.70;;;14.30;99.90;;;;;;4981152;28;20541;-69
2022/04/07 15:46:11;;;;;;;0.50;0.50;;;14.20;99.90;;;;;;4980638;28;20463;-69
2022/04/07 15:48:38;;;;;;;1.00;0.50;;;13.90;99.90;;;;;;4979574;28;20459;-69
2022/04/07 15:51:06;;;;;;;1.13;0.67;;;13.70;99.90;;;;;;4979876;28;20819;-69
2022/04/07 15:53:33;;;;;;;1.70;1.17;;;13.60;99.90;;;;;;4977767;28;20447;-69
2022/04/07 15:55:59;;;;;;;2.47;1.07;;;13.30;99.90;;;;;;4977684;28;20457;-69
2022/04/07 15:58:27;;;;;;;2.47;1.90;;;13.20;99.90;;;;;;4977466;28;20513;-70
2022/04/07 16:00:54;;;;;;;1.97;1.67;;;13.10;99.90;;;;;;4977142;28;20537;-68
2022/04/07 16:03:20;;;;;;;0.50;0.50;;;12.90;99.90;;;;;;4977394;28;20506;-69
2022/04/07 16:05:47;;;;;;;2.40;0.70;;;12.80;99.90;;;;;;4977275;28;20455;-70
2022/04/07 16:08:16;;;;;;;2.20;0.60;;;12.70;99.90;;;;;;4976836;28;20459;-69
2022/04/07 16:10:43;;;;;;;0.70;0.70;;;12.60;99.90;;;;;;4976975;28;20475;-68
2022/04/07 16:13:10;;;;;;;0.70;0.60;;;12.40;99.90;;;;;;4977312;28;20450;-68
2022/04/07 16:15:37;;;;;;;0.43;0.43;;;12.30;99.90;;;;;;4977241;28;20477;-69
2022/04/07 16:18:04;;;;;;;1.93;0.57;;;12.20;99.90;;;;;;4977745;28;20451;-68
2022/04/07 16:20:31;;;;;;;1.00;0.70;;;12.10;99.90;;;;;;4978298;28;20455;-68
2022/04/07 16:22:58;;;;;;;2.20;1.23;;;12.00;99.90;;;;;;4977729;28;20482;-68
2022/04/07 16:25:26;;;;;;;2.37;0.70;;;12.00;99.90;;;;;;4977029;28;20575;-67
2022/04/07 16:27:53;;;;;;;2.07;0.70;;;11.90;99.90;;;;;;4977121;28;20465;-66
2022/04/07 16:30:20;;;;;;;1.10;0.93;;;11.80;99.90;;;;;;4976873;28;20455;-67
2022/04/07 16:32:47;;;;;;;4.17;3.77;;;11.80;99.90;;;;;;4977039;28;20462;-66
2022/04/07 16:35:14;;;;;;;2.27;1.20;;;11.80;99.90;;;;;;4977291;28;20490;-68
2022/04/07 16:37:40;;;;;;;5.80;1.10;;;11.60;99.90;;;;;;4979229;28;20485;-67
2022/04/07 16:40:09;;;;;;;3.50;0.97;;;11.30;99.90;;;;;;4976549;28;20463;-67
2022/04/07 16:42:37;;;;;;;2.40;0.90;;;11.10;99.90;;;;;;4979546;28;20489;-67
2022/04/07 16:45:05;;;;;;;2.50;1.10;;;10.90;99.90;;;;;;4976639;28;20458;-68
2022/04/07 16:47:31;;;;;;;2.00;0.90;;;10.80;99.90;;;;;;4976264;28;20486;-68
2022/04/07 16:49:58;;;;;;;1.23;0.80;;;10.70;99.90;;;;;;4977868;28;20458;-67
2022/04/07 16:52:25;;;;;;;2.93;1.00;;;10.60;99.90;;;;;;4981424;28;20471;-67
2022/04/07 16:54:52;;;;;;;1.60;0.70;;;10.50;99.90;;;;;;4986699;28;20456;-69
2022/04/07 16:57:21;;;;;;;2.00;0.80;;;10.50;99.90;;;;;;4983087;28;20489;-68
2022/04/07 16:59:51;;;;;;;0.97;0.90;;;10.50;99.90;;;;;;4979515;28;20817;-69
2022/04/07 17:02:18;;;;;;;2.27;0.60;;;10.60;99.90;;;;;;4980194;28;20554;-69
2022/04/07 17:04:45;;;;;;;2.40;0.50;;;10.60;99.90;;;;;;4984834;28;20451;-69
2022/04/07 17:07:12;;;;;;;0.50;0.50;;;10.70;99.90;;;;;;4983932;28;20451;-69
2022/04/07 17:09:39;;;;;;;0.70;0.67;;;10.80;99.90;;;;;;4983796;28;20455;-69
2022/04/07 17:12:10;;;;;;;1.00;0.60;;;10.80;99.90;;;;;;4978823;28;20474;-69
2022/04/07 17:14:37;;;;;;;0.50;0.50;;;10.90;99.90;;;;;;4979486;28;20498;-69
2022/04/07 17:17:05;;;;;;;0.50;0.50;;;10.90;99.90;;;;;;4979312;28;20455;-71
2022/04/07 17:19:33;;;;;;;0.47;0.47;;;11.00;99.90;;;;;;4978720;28;20834;-71